Time;durP1;ratioP1;P1;durP2;ratioP2;P2;SDS_P1;SDS_P2;PMS_P1;PMS_P2;Temp;Humidity;BMP_temperature;BMP_pressure;BME280_temperature;BME280_humidity;BME280_pressure;Samples;Min_cycle;Max_cycle;Signal;HPM_P1;HPM_P2
2021/12/13 00:01:50;;;;;;;25.27;12.43;;;;;;;7.23;95.04;101300.16;8544397;33;20409;-77
2021/12/13 00:07:01;;;;;;;31.15;14.90;;;;;;;7.29;95.25;101305.19;8544767;33;20987;-77
2021/12/13 00:12:06;;;;;;;35.80;16.83;;;;;;;7.12;95.54;101305.22;8543771;33;20404;-76
2021/12/13 00:17:15;;;;;;;29.17;13.38;;;;;;;7.07;95.63;101305.44;8543577;33;20252;-77
2021/12/13 00:22:24;;;;;;;28.90;13.68;;;;;;;7.29;94.80;101305.19;8542211;33;20148;-76
2021/12/13 00:27:30;;;;;;;32.47;17.33;;;;;;;7.33;94.92;101305.91;8543647;33;20196;-76
2021/12/13 00:32:43;;;;;;;34.72;16.95;;;;;;;7.47;94.18;101306.03;8520889;33;20450;-77
2021/12/13 00:37:53;;;;;;;36.83;17.65;;;;;;;7.49;94.11;101302.34;8520681;33;20228;-77
2021/12/13 00:43:01;;;;;;;41.78;20.35;;;;;;;7.48;93.88;101300.59;8546272;33;21039;-77
2021/12/13 00:48:07;;;;;;;32.92;16.67;;;;;;;7.52;94.25;101309.31;8547756;33;20861;-76
2021/12/13 00:53:17;;;;;;;32.85;14.60;;;;;;;7.31;94.41;101319.34;8537234;33;20196;-76
2021/12/13 00:58:23;;;;;;;33.13;15.85;;;;;;;7.46;94.55;101313.19;8540185;33;20669;-77
2021/12/13 01:03:35;;;;;;;29.17;14.18;;;;;;;7.33;94.58;101320.13;8538337;33;20633;-76
2021/12/13 01:09:39;;;;;;;34.83;18.27;;;;;;;7.46;95.03;101336.38;8516676;33;20199;-76
2021/12/13 01:14:58;;;;;;;43.30;19.02;;;;;;;7.52;94.68;101319.16;8530687;33;20606;-77
2021/12/13 01:20:18;;;;;;;46.33;21.63;;;;;;;7.36;95.89;101327.13;8537440;33;20712;-76
2021/12/13 01:25:44;;;;;;;46.80;20.27;;;;;;;7.45;95.76;101330.16;8542479;33;20942;-76
2021/12/13 01:30:54;;;;;;;42.97;19.73;;;;;;;7.54;94.68;101336.81;8545531;33;20418;-78
2021/12/13 01:36:01;;;;;;;51.80;22.98;;;;;;;7.52;94.94;101343.22;8553032;33;20975;-76
2021/12/13 01:41:10;;;;;;;55.40;23.05;;;;;;;7.61;94.54;101345.41;8563900;33;20928;-77
2021/12/13 01:46:15;;;;;;;48.00;22.88;;;;;;;7.66;94.62;101354.91;8540626;33;21018;-77
2021/12/13 01:51:26;;;;;;;49.95;22.52;;;;;;;7.69;94.27;101354.72;8565154;33;20487;-78
2021/12/13 01:56:45;;;;;;;48.83;21.67;;;;;;;7.63;94.50;101351.53;8566765;33;20147;-77
2021/12/13 02:01:50;;;;;;;47.40;20.55;;;;;;;7.58;94.64;101367.81;8544055;33;20188;-77
2021/12/13 02:07:02;;;;;;;41.05;19.63;;;;;;;7.71;94.61;101360.00;8571898;33;20399;-77
2021/12/13 02:12:13;;;;;;;44.88;18.80;;;;;;;7.73;94.12;101361.66;8610641;33;20139;-76
2021/12/13 02:17:23;;;;;;;37.30;16.85;;;;;;;7.60;94.89;101357.91;8550644;33;20510;-78
2021/12/13 02:22:39;;;;;;;41.40;20.33;;;;;;;7.71;93.81;101355.53;8540065;33;20148;-76
2021/12/13 02:27:49;;;;;;;44.00;19.15;;;;;;;7.69;94.16;101354.72;8552079;33;20143;-77
2021/12/13 02:32:53;;;;;;;46.42;20.63;;;;;;;7.72;93.66;101367.09;8525078;33;20871;-77
2021/12/13 02:37:59;;;;;;;40.50;19.90;;;;;;;7.57;94.44;101362.53;8550845;33;20179;-77
2021/12/13 02:43:03;;;;;;;47.50;20.83;;;;;;;7.60;94.19;101373.97;8520982;33;20212;-77
2021/12/13 02:48:15;;;;;;;50.00;21.45;;;;;;;7.62;94.67;101377.38;8548224;33;20417;-77
2021/12/13 02:53:25;;;;;;;46.97;22.00;;;;;;;7.70;94.18;101377.84;8548033;33;20862;-77
2021/12/13 02:58:31;;;;;;;45.17;20.58;;;;;;;7.67;94.32;101377.16;8546367;33;20526;-76
2021/12/13 03:03:39;;;;;;;52.03;21.55;;;;;;;7.66;94.21;101375.44;8546523;33;20162;-76
2021/12/13 03:08:51;;;;;;;47.88;20.42;;;;;;;7.59;94.40;101374.88;8547325;33;20263;-77
2021/12/13 03:13:59;;;;;;;43.63;20.83;;;;;;;7.62;94.49;101374.72;8547327;33;20530;-77
2021/12/13 03:26:40;;;;;;;37.90;17.05;;;;;;;7.32;95.93;101365.63;8545627;33;20183;-77
2021/12/13 03:31:48;;;;;;;46.30;19.92;;;;;;;7.44;95.62;101373.88;8409323;33;20414;-76
2021/12/13 03:36:59;;;;;;;40.28;17.35;;;;;;;7.51;94.71;101382.44;8559794;33;20190;-77
2021/12/13 03:42:09;;;;;;;44.22;17.38;;;;;;;7.34;96.01;101387.81;8531835;33;20183;-76
2021/12/13 03:47:17;;;;;;;38.47;18.58;;;;;;;7.54;94.94;101374.25;8526510;33;20461;-77
2021/12/13 03:52:24;;;;;;;47.15;21.48;;;;;;;7.69;93.74;101377.94;8561485;33;21261;-77
2021/12/13 03:57:30;;;;;;;43.67;20.42;;;;;;;7.66;94.10;101396.84;8557425;33;21292;-77
2021/12/13 04:02:37;;;;;;;49.60;19.85;;;;;;;7.43;95.47;101398.91;8547732;33;20612;-77
2021/12/13 04:07:45;;;;;;;46.45;20.00;;;;;;;7.48;95.07;101402.19;8557648;33;21020;-76
2021/12/13 04:12:55;;;;;;;53.17;23.00;;;;;;;7.56;94.68;101399.13;8559874;33;20187;-78
2021/12/13 04:18:13;;;;;;;51.55;21.10;;;;;;;7.62;94.20;101396.09;8558146;33;20184;-78
2021/12/13 04:23:22;;;;;;;56.70;22.90;;;;;;;7.58;94.25;101399.03;8544571;33;20564;-77
2021/12/13 04:28:35;;;;;;;49.13;23.42;;;;;;;7.51;94.63;101401.16;8547043;33;20879;-77
2021/12/13 04:33:41;;;;;;;47.85;21.33;;;;;;;7.45;94.47;101414.84;8549504;33;20191;-77
2021/12/13 04:38:51;;;;;;;45.58;19.05;;;;;;;7.38;95.15;101411.63;8550569;33;21034;-77
2021/12/13 04:44:05;;;;;;;43.47;18.02;;;;;;;7.51;94.60;101409.19;8547629;33;20172;-77
2021/12/13 04:49:13;;;;;;;35.10;15.60;;;;;;;7.47;94.89;101416.50;8547732;33;20188;-77
2021/12/13 04:54:17;;;;;;;40.80;16.90;;;;;;;7.44;95.32;101423.81;8549482;33;20482;-77
2021/12/13 04:59:22;;;;;;;36.33;17.20;;;;;;;7.56;94.81;101425.00;8552770;33;21161;-76
2021/12/13 05:04:27;;;;;;;34.35;16.13;;;;;;;7.49;94.87;101435.16;8556014;33;20191;-77
2021/12/13 05:09:31;;;;;;;34.35;17.10;;;;;;;7.49;94.92;101440.50;8526024;33;20183;-77
2021/12/13 05:14:40;;;;;;;39.45;17.42;;;;;;;7.43;94.98;101438.13;8522675;33;20405;-76
2021/12/13 05:19:49;;;;;;;34.20;15.68;;;;;;;7.53;94.93;101447.41;8546519;33;21062;-77
2021/12/13 05:24:56;;;;;;;31.35;15.50;;;;;;;7.60;93.89;101446.16;8521277;33;20474;-77
2021/12/13 05:30:16;;;;;;;32.97;16.23;;;;;;;7.56;94.75;101449.06;8544075;33;20152;-76
2021/12/13 05:35:25;;;;;;;36.05;16.75;;;;;;;7.60;94.23;101456.00;8548106;33;20469;-77
2021/12/13 05:40:39;;;;;;;33.00;16.02;;;;;;;7.62;93.82;101452.28;8551671;33;20664;-77
2021/12/13 05:45:48;;;;;;;34.22;16.90;;;;;;;7.44;93.87;101451.41;8526743;33;20257;-77
2021/12/13 05:50:57;;;;;;;29.38;16.40;;;;;;;7.56;94.13;101452.59;8550830;33;20463;-76
2021/12/13 05:56:08;;;;;;;35.10;17.70;;;;;;;7.49;94.04;101459.22;8526368;33;20414;-77
2021/12/13 06:01:22;;;;;;;37.20;19.17;;;;;;;7.55;93.46;101448.19;8551817;33;20470;-77
2021/12/13 06:06:28;;;;;;;38.70;18.25;;;;;;;7.62;93.52;101452.28;8527024;33;20574;-78
2021/12/13 06:11:34;;;;;;;38.08;17.35;;;;;;;7.28;94.48;101443.31;8525694;33;20482;-78
2021/12/13 06:16:47;;;;;;;39.80;19.90;;;;;;;7.52;93.34;101455.53;8549730;33;20449;-78
2021/12/13 06:22:02;;;;;;;42.80;18.95;;;;;;;7.36;93.80;101466.13;8549363;33;20201;-77
2021/12/13 06:27:16;;;;;;;45.80;19.17;;;;;;;7.27;94.35;101479.00;8522273;33;20987;-77
2021/12/13 06:32:41;;;;;;;37.45;17.15;;;;;;;7.36;93.38;101483.03;8545145;33;20472;-77
2021/12/13 06:37:44;;;;;;;34.67;16.63;;;;;;;7.34;93.94;101489.38;8540431;33;20454;-77
2021/12/13 06:42:47;;;;;;;47.03;20.88;;;;;;;7.34;93.97;101487.56;8515987;33;20434;-76
2021/12/13 06:47:55;;;;;;;45.55;21.92;;;;;;;7.25;94.05;101494.25;8541528;33;20907;-76
2021/12/13 06:53:16;;;;;;;48.58;22.13;;;;;;;7.25;94.18;101496.91;8547022;33;20183;-76
2021/12/13 06:58:24;;;;;;;46.38;21.88;;;;;;;7.43;93.33;101503.19;8564239;33;20528;-75
2021/12/13 07:03:34;;;;;;;42.03;20.52;;;;;;;7.33;93.71;101504.56;8539565;33;20516;-75
2021/12/13 07:08:41;;;;;;;43.10;21.50;;;;;;;7.59;93.02;101499.72;8554802;33;20439;-76
2021/12/13 07:13:52;;;;;;;48.63;22.50;;;;;;;7.65;92.76;101512.75;8525020;33;20365;-76
2021/12/13 07:19:05;;;;;;;46.95;21.80;;;;;;;7.52;93.07;101509.00;8524824;33;20414;-75
2021/12/13 07:24:13;;;;;;;52.53;22.70;;;;;;;7.54;93.01;101513.31;8550331;33;20924;-76
2021/12/13 07:29:22;;;;;;;46.67;23.58;;;;;;;7.55;92.83;101522.22;8546342;33;20192;-76
2021/12/13 07:34:27;;;;;;;43.80;21.30;;;;;;;7.61;92.29;101525.44;8514092;33;20486;-76
2021/12/13 07:39:32;;;;;;;42.33;21.73;;;;;;;7.63;92.15;101528.03;8543262;33;20582;-75
2021/12/13 07:44:41;;;;;;;44.08;21.88;;;;;;;7.59;92.26;101529.97;8543398;33;20401;-76
2021/12/13 07:49:55;;;;;;;45.13;21.98;;;;;;;7.54;92.08;101529.34;8543444;33;20486;-75
2021/12/13 07:55:13;;;;;;;56.30;24.02;;;;;;;7.56;91.60;101529.28;8545918;33;21138;-76
2021/12/13 08:00:24;;;;;;;45.80;23.17;;;;;;;7.66;91.44;101526.06;8539209;33;20414;-76
2021/12/13 08:05:37;;;;;;;57.97;26.33;;;;;;;7.57;91.39;101545.25;8536032;33;20465;-76
2021/12/13 08:10:43;;;;;;;54.65;25.13;;;;;;;7.35;91.46;101544.56;8535465;33;20283;-76
2021/12/13 08:15:50;;;;;;;62.42;29.15;;;;;;;7.57;91.40;101550.63;8536220;33;20415;-76
2021/12/13 08:20:59;;;;;;;65.40;28.75;;;;;;;7.51;91.23;101553.56;8550107;33;20420;-76
2021/12/13 08:26:05;;;;;;;63.40;27.55;;;;;;;7.48;90.87;101567.94;8584706;33;20389;-75
2021/12/13 08:31:21;;;;;;;65.47;28.15;;;;;;;7.54;90.75;101565.91;8569393;33;20496;-76
2021/12/13 08:36:32;;;;;;;70.95;28.70;;;;;;;7.55;90.46;101573.88;8548173;33;20243;-76
2021/12/13 08:41:41;;;;;;;66.45;28.90;;;;;;;7.44;90.79;101585.09;8546719;33;20422;-76
2021/12/13 08:46:48;;;;;;;71.05;31.40;;;;;;;7.48;90.50;101580.47;8540552;33;20136;-76
2021/12/13 08:52:01;;;;;;;68.25;30.83;;;;;;;7.45;90.69;101572.59;8539788;33;20412;-76
2021/12/13 08:57:11;;;;;;;69.82;31.20;;;;;;;7.53;90.25;101569.53;8535832;33;20460;-76
2021/12/13 09:02:14;;;;;;;70.18;30.88;;;;;;;7.49;90.26;101583.06;8537043;33;20166;-76
2021/12/13 09:07:23;;;;;;;64.72;28.98;;;;;;;7.58;89.74;101584.41;8536862;33;20535;-76
2021/12/13 09:12:32;;;;;;;65.75;30.38;;;;;;;7.50;90.13;101602.66;8540949;33;20407;-76
2021/12/13 09:17:41;;;;;;;55.20;22.80;;;;;;;7.30;90.29;101602.75;8543673;33;21758;-75
2021/12/13 09:22:50;;;;;;;63.80;28.10;;;;;;;7.54;89.60;101604.22;8543652;33;20174;-76
2021/12/13 09:27:57;;;;;;;59.58;26.42;;;;;;;7.42;89.67;101605.69;8542233;33;20175;-76
2021/12/13 09:33:04;;;;;;;61.00;27.50;;;;;;;7.50;89.19;101610.66;8537713;33;20415;-76
2021/12/13 09:38:38;;;;;;;45.13;22.67;;;;;;;7.54;89.07;101622.94;8536896;33;20156;-76
2021/12/13 09:43:47;;;;;;;49.13;23.63;;;;;;;7.53;88.82;101615.00;8543118;33;20191;-76
2021/12/13 09:48:55;;;;;;;48.90;21.75;;;;;;;7.46;88.73;101617.97;8523263;33;20904;-76
2021/12/13 09:54:05;;;;;;;44.10;20.80;;;;;;;7.62;88.40;101610.06;8538104;33;20537;-76
2021/12/13 09:59:18;;;;;;;45.85;21.77;;;;;;;7.68;88.26;101600.91;8523282;33;20158;-76
2021/12/13 10:04:30;;;;;;;47.90;22.02;;;;;;;7.56;88.38;101613.03;8521389;33;20288;-77
2021/12/13 10:09:41;;;;;;;46.53;22.77;;;;;;;7.67;88.58;101616.06;8548730;33;20189;-76
2021/12/13 10:14:49;;;;;;;48.15;21.42;;;;;;;7.70;88.22;101610.53;8518656;33;20197;-75
2021/12/13 10:19:58;;;;;;;46.58;23.23;;;;;;;7.63;88.36;101611.81;8544171;33;20131;-75
2021/12/13 10:25:09;;;;;;;42.78;21.35;;;;;;;7.64;88.09;101610.84;8547277;33;21510;-75
2021/12/13 10:30:18;;;;;;;39.90;19.77;;;;;;;7.57;87.88;101616.56;8541731;33;20183;-75
2021/12/13 10:35:25;;;;;;;36.38;18.20;;;;;;;7.62;87.82;101619.88;8545426;33;20446;-75
2021/12/13 10:40:35;;;;;;;36.50;18.63;;;;;;;7.68;87.89;101606.25;8547769;33;20452;-76
2021/12/13 10:45:45;;;;;;;40.20;19.08;;;;;;;7.65;87.58;101609.94;8544307;33;21915;-75
2021/12/13 10:50:52;;;;;;;34.78;17.38;;;;;;;7.70;87.68;101612.34;8542772;33;22661;-76
2021/12/13 10:56:03;;;;;;;37.58;17.45;;;;;;;7.62;87.57;101601.19;8537732;33;20419;-75
2021/12/13 11:01:10;;;;;;;32.28;17.88;;;;;;;7.60;87.68;101603.09;8536200;33;20222;-75
2021/12/13 11:06:17;;;;;;;36.17;18.17;;;;;;;7.61;87.55;101594.09;8539742;33;20310;-76
2021/12/13 11:11:32;;;;;;;30.23;14.88;;;;;;;7.60;87.73;101603.09;8536583;33;20425;-76
2021/12/13 11:16:39;;;;;;;28.65;14.80;;;;;;;7.50;87.27;101605.31;8531200;33;20551;-75
2021/12/13 11:21:47;;;;;;;28.92;16.00;;;;;;;7.68;87.07;101606.25;8535132;33;21238;-75
2021/12/13 11:26:58;;;;;;;27.70;13.63;;;;;;;7.67;86.82;101601.81;8532454;33;20440;-75
2021/12/13 11:33:01;;;;;;;27.00;13.93;;;;;;;7.63;86.97;101600.25;8505626;33;20150;-75
2021/12/13 11:38:28;;;;;;;27.33;14.95;;;;;;;7.54;86.74;101603.34;8513521;33;20132;-75
2021/12/13 11:43:56;;;;;;;25.70;13.55;;;;;;;7.62;86.64;101610.06;8518449;33;20479;-75
2021/12/13 11:49:32;;;;;;;28.00;14.73;;;;;;;7.71;86.84;101593.56;8542322;33;20446;-76
2021/12/13 11:55:26;;;;;;;28.35;14.10;;;;;;;7.66;86.48;101608.97;8519617;33;20398;-75
2021/12/13 12:00:49;;;;;;;22.83;13.27;;;;;;;7.71;86.69;101593.56;8548180;33;20444;-75
2021/12/13 12:06:43;;;;;;;27.13;13.80;;;;;;;7.72;86.72;101599.78;8554674;33;20469;-75
2021/12/13 12:12:12;;;;;;;22.77;12.55;;;;;;;7.76;86.84;101597.81;8545628;33;20187;-75
2021/12/13 12:17:19;;;;;;;22.13;11.52;;;;;;;7.68;86.73;101598.22;8546375;33;20815;-76
2021/12/13 12:22:23;;;;;;;22.98;11.80;;;;;;;7.71;86.58;101598.94;8517332;33;20527;-75
2021/12/13 12:27:30;;;;;;;21.45;11.95;;;;;;;7.61;86.76;101599.44;8539011;33;20502;-76
2021/12/13 12:32:37;;;;;;;23.35;11.73;;;;;;;7.67;86.54;101605.34;8540103;33;20425;-75
2021/12/13 12:38:22;;;;;;;23.40;12.13;;;;;;;7.65;86.35;101595.66;8515158;33;20844;-75
2021/12/13 12:43:30;;;;;;;19.67;11.48;;;;;;;7.70;86.52;101596.31;8511941;33;20422;-75
2021/12/13 12:48:39;;;;;;;22.88;12.95;;;;;;;7.71;86.20;101598.06;8513008;33;20527;-75
2021/12/13 12:53:48;;;;;;;24.65;12.82;;;;;;;7.62;86.08;101598.50;8535456;33;20168;-75
2021/12/13 12:58:58;;;;;;;19.95;11.13;;;;;;;7.68;86.22;101601.75;8537554;33;20147;-75
2021/12/13 13:04:13;;;;;;;22.60;11.80;;;;;;;7.68;86.49;101598.22;8538566;33;20434;-75
2021/12/13 13:09:16;;;;;;;19.13;10.77;;;;;;;7.67;86.38;101591.97;8537350;33;20426;-75
2021/12/13 13:14:27;;;;;;;23.95;12.23;;;;;;;7.67;86.39;101604.50;8535449;33;20221;-75
2021/12/13 13:19:35;;;;;;;18.05;10.75;;;;;;;7.59;85.83;101591.50;8533155;33;20553;-75
2021/12/13 13:24:40;;;;;;;19.70;11.47;;;;;;;7.65;86.06;101595.66;8535650;33;20421;-76
2021/12/13 13:29:44;;;;;;;19.48;12.40;;;;;;;7.62;86.11;101591.34;8538822;33;20516;-75
2021/12/13 13:34:53;;;;;;;23.48;12.00;;;;;;;7.60;86.38;101589.72;8548732;33;20438;-75
2021/12/13 13:40:00;;;;;;;22.52;11.85;;;;;;;7.62;85.98;101594.00;8558769;33;21144;-75
2021/12/13 13:45:09;;;;;;;20.65;11.52;;;;;;;7.60;85.64;101593.25;8558702;33;20208;-75
2021/12/13 13:50:25;;;;;;;22.08;12.02;;;;;;;7.63;85.85;101595.75;8548528;33;20828;-75
2021/12/13 13:55:33;;;;;;;20.38;11.45;;;;;;;7.55;85.50;101600.63;8545596;33;20412;-75
2021/12/13 14:00:44;;;;;;;24.27;12.60;;;;;;;7.50;85.81;101598.16;8541825;33;20711;-75
2021/12/13 14:05:52;;;;;;;22.27;11.63;;;;;;;7.54;86.07;101609.56;8542544;33;20454;-75
2021/12/13 14:11:11;;;;;;;23.13;11.15;;;;;;;7.58;86.11;101603.13;8540943;33;20182;-75
2021/12/13 14:16:18;;;;;;;17.40;10.10;;;;;;;7.45;85.56;101616.22;8517079;33;20428;-75
2021/12/13 14:21:27;;;;;;;21.15;10.68;;;;;;;7.55;85.35;101616.66;8555323;33;20412;-75
2021/12/13 14:26:31;;;;;;;22.30;10.65;;;;;;;7.54;85.42;101614.06;8561783;33;20991;-75
2021/12/13 14:31:41;;;;;;;18.98;10.30;;;;;;;7.52;85.29;101607.94;8546772;33;20557;-76
2021/12/13 14:36:49;;;;;;;18.25;10.85;;;;;;;7.38;85.27;101605.94;8460812;33;21912;-76
2021/12/13 14:41:56;;;;;;;22.00;11.65;;;;;;;7.39;85.09;101613.84;8523712;33;20490;-76
2021/12/13 14:47:03;;;;;;;19.60;10.30;;;;;;;7.39;84.83;101619.22;8547222;33;20411;-75
2021/12/13 14:52:12;;;;;;;15.93;9.82;;;;;;;7.40;84.64;101615.59;8544723;33;20279;-75
2021/12/13 14:57:21;;;;;;;20.48;10.20;;;;;;;7.32;84.51;101615.09;8544455;33;20160;-76
2021/12/13 15:02:31;;;;;;;17.48;9.95;;;;;;;7.40;84.58;101606.69;8517041;33;20533;-76
2021/12/13 15:07:39;;;;;;;18.23;9.75;;;;;;;7.37;84.05;101609.53;8544450;33;20144;-76
2021/12/13 15:12:47;;;;;;;14.32;8.70;;;;;;;7.40;84.15;101609.38;8536381;33;20925;-76
2021/12/13 15:17:54;;;;;;;14.30;9.02;;;;;;;7.41;83.67;101606.66;8533618;33;20668;-76
2021/12/13 15:23:05;;;;;;;19.60;13.40;;;;;;;7.38;83.97;101612.16;8532869;33;20273;-76
2021/12/13 15:28:13;;;;;;;18.73;9.98;;;;;;;7.30;83.93;101608.09;8531817;33;20434;-76
2021/12/13 15:33:17;;;;;;;13.55;8.65;;;;;;;7.33;84.33;101613.31;8530666;33;20425;-76
2021/12/13 15:38:21;;;;;;;15.25;8.38;;;;;;;7.31;83.58;101608.03;8535756;33;20635;-75
2021/12/13 15:43:29;;;;;;;15.00;8.80;;;;;;;7.27;83.72;101601.97;8536031;33;21462;-76
2021/12/13 15:54:00;;;;;;;16.05;9.63;;;;;;;7.33;83.41;101605.28;8532379;33;20500;-74
2021/12/13 15:59:09;;;;;;;14.32;8.98;;;;;;;7.32;83.53;101603.53;8536401;33;20416;-74
2021/12/13 16:04:17;;;;;;;16.90;8.95;;;;;;;7.31;83.00;101600.00;8537204;33;20434;-75
2021/12/13 16:09:25;;;;;;;13.55;8.77;;;;;;;7.38;83.35;101611.28;8513985;33;20671;-75
2021/12/13 16:14:35;;;;;;;17.95;10.32;;;;;;;7.27;83.46;101619.81;8539777;33;21026;-74
2021/12/13 16:20:14;;;;;;;17.63;10.40;;;;;;;7.29;83.35;101625.94;8542474;33;20187;-74
2021/12/13 16:25:30;;;;;;;20.23;10.00;;;;;;;7.26;83.11;101626.06;8484969;33;20961;-74
2021/12/13 16:30:40;;;;;;;17.67;9.32;;;;;;;7.29;83.24;101620.59;8558194;33;20150;-75
2021/12/13 16:35:49;;;;;;;16.13;9.55;;;;;;;7.21;82.60;101614.72;8544728;33;20508;-75
2021/12/13 16:40:59;;;;;;;13.88;9.35;;;;;;;7.24;82.57;101620.81;8537554;33;20172;-75
2021/12/13 16:46:06;;;;;;;17.45;9.70;;;;;;;7.30;82.70;101622.34;8534788;33;20485;-75
2021/12/13 16:51:15;;;;;;;17.38;9.98;;;;;;;7.33;83.28;101616.84;8535726;33;20461;-74
2021/12/13 16:56:23;;;;;;;16.45;9.52;;;;;;;7.23;82.83;101623.56;8544198;33;22616;-75
2021/12/13 17:01:37;;;;;;;15.77;10.00;;;;;;;7.23;83.02;101621.75;8559217;33;20413;-75
2021/12/13 17:06:48;;;;;;;18.55;10.27;;;;;;;7.20;82.89;101626.38;8535556;33;20140;-75
2021/12/13 17:12:07;;;;;;;19.00;9.48;;;;;;;7.12;82.73;101618.72;8546880;33;20185;-75
2021/12/13 17:17:10;;;;;;;14.52;9.25;;;;;;;7.19;82.35;101625.50;8532480;33;20322;-75
2021/12/13 17:22:15;;;;;;;17.80;10.32;;;;;;;7.17;82.61;101630.06;8547970;33;20434;-75
2021/12/13 17:27:25;;;;;;;19.35;10.23;;;;;;;7.20;82.59;101608.53;8563483;33;20453;-75
2021/12/13 17:32:36;;;;;;;16.20;9.75;;;;;;;7.25;82.52;101611.84;8551788;33;20415;-74
2021/12/13 17:37:45;;;;;;;18.08;11.50;;;;;;;6.99;82.84;101617.53;8562143;33;20160;-76
2021/12/13 17:42:56;;;;;;;18.92;10.82;;;;;;;7.23;82.59;101608.38;8561897;33;20459;-74
2021/12/13 17:48:32;;;;;;;18.55;11.23;;;;;;;7.16;82.45;101609.63;8563258;33;20196;-75
2021/12/13 17:53:39;;;;;;;22.23;11.73;;;;;;;7.22;82.62;101597.78;8560276;33;20472;-76
2021/12/13 17:58:55;;;;;;;17.58;10.70;;;;;;;7.28;82.60;101608.16;8548652;33;20144;-74
2021/12/13 18:04:05;;;;;;;21.48;11.63;;;;;;;7.37;83.17;101612.19;8561256;33;20189;-75
2021/12/13 18:09:26;;;;;;;20.40;11.77;;;;;;;7.25;81.96;101606.50;8562781;33;20981;-75
2021/12/13 18:14:57;;;;;;;19.98;11.65;;;;;;;7.42;81.98;101612.84;8566730;33;20183;-75
2021/12/13 18:20:15;;;;;;;18.63;11.20;;;;;;;7.45;81.42;101620.72;8567811;33;20148;-74
2021/12/13 18:25:47;;;;;;;25.25;15.60;;;;;;;7.37;81.25;101614.88;8570140;33;20436;-76
2021/12/13 18:30:56;;;;;;;16.45;10.18;;;;;;;7.28;80.94;101625.06;8541649;33;20155;-74
2021/12/13 18:36:04;;;;;;;18.70;9.90;;;;;;;7.38;80.42;101622.84;8564541;33;20128;-75
2021/12/13 18:41:13;;;;;;;19.70;10.85;;;;;;;7.40;80.53;101631.63;8561894;33;20466;-74
2021/12/13 18:46:31;;;;;;;15.38;9.70;;;;;;;7.43;80.75;101619.91;8563725;33;20414;-74
2021/12/13 18:51:54;;;;;;;19.17;10.77;;;;;;;7.37;81.08;101622.91;8564701;33;20399;-74
2021/12/13 18:57:17;;;;;;;18.00;10.10;;;;;;;7.37;80.49;101621.09;8560978;33;20179;-75
2021/12/13 19:02:32;;;;;;;17.35;9.82;;;;;;;7.30;80.03;101622.34;8561635;33;21527;-75
2021/12/13 19:07:44;;;;;;;16.77;10.48;;;;;;;7.37;79.67;101614.88;8561754;33;20208;-74
2021/12/13 19:12:56;;;;;;;16.48;9.60;;;;;;;7.37;79.69;101620.22;8558544;33;22061;-75
2021/12/13 19:18:06;;;;;;;16.98;10.60;;;;;;;7.28;79.77;101611.69;8524304;33;20174;-74
2021/12/13 19:23:22;;;;;;;20.48;11.15;;;;;;;7.37;80.16;101610.38;8544629;33;20422;-75
2021/12/13 19:28:29;;;;;;;20.08;10.75;;;;;;;7.23;79.48;101608.38;8493066;33;21451;-75
2021/12/13 19:33:41;;;;;;;14.43;9.82;;;;;;;7.22;78.80;101616.47;8544432;33;21346;-75
2021/12/13 19:38:50;;;;;;;24.98;13.82;;;;;;;7.31;79.22;101612.50;8535823;33;20207;-75
2021/12/13 19:43:57;;;;;;;24.98;15.38;;;;;;;7.18;79.67;101613.06;8530186;33;20176;-75
2021/12/13 19:49:11;;;;;;;15.45;9.70;;;;;;;7.21;79.47;101612.06;8518341;33;20745;-74
2021/12/13 19:54:21;;;;;;;26.33;14.57;;;;;;;7.24;79.09;101615.47;8521812;33;21008;-75
2021/12/13 19:59:28;;;;;;;13.75;7.93;;;;;;;7.22;79.27;101621.84;8550051;33;20286;-76
2021/12/13 20:04:38;;;;;;;13.23;8.05;;;;;;;7.12;79.16;101607.16;8557989;33;20341;-75
2021/12/13 20:09:45;;;;;;;13.32;8.57;;;;;;;7.19;78.24;101598.78;8533324;33;20171;-76
2021/12/13 20:14:52;;;;;;;14.93;9.05;;;;;;;7.25;78.23;101592.28;8557760;33;20278;-76
2021/12/13 20:20:09;;;;;;;16.27;8.50;;;;;;;7.32;78.33;101593.69;8527689;33;21525;-75
2021/12/13 20:25:19;;;;;;;12.68;8.70;;;;;;;7.25;78.02;101590.47;8515564;33;20132;-76
2021/12/13 20:30:32;;;;;;;11.77;7.30;;;;;;;7.28;77.89;101593.00;8512994;33;20488;-76
2021/12/13 20:35:53;;;;;;;12.00;8.27;;;;;;;7.30;77.74;101590.25;8538105;33;20435;-76
2021/12/13 20:41:02;;;;;;;11.93;7.55;;;;;;;7.25;77.81;101584.25;8539545;33;20472;-76
2021/12/13 20:46:10;;;;;;;10.13;7.03;;;;;;;7.30;77.60;101581.38;8540372;33;20438;-76
2021/12/13 20:51:21;;;;;;;10.48;7.22;;;;;;;7.23;77.31;101589.66;8541795;33;20144;-75
2021/12/13 20:56:29;;;;;;;12.38;7.38;;;;;;;7.21;77.16;101586.22;8544473;33;21753;-75
2021/12/13 21:01:37;;;;;;;13.23;10.07;;;;;;;7.28;77.43;101590.31;8527662;33;20740;-76
2021/12/13 21:06:47;;;;;;;12.50;6.70;;;;;;;7.21;77.45;101586.22;8560651;33;20929;-75
2021/12/13 21:11:55;;;;;;;12.48;7.75;;;;;;;7.25;77.39;101573.56;8544512;33;20434;-74
2021/12/13 21:17:07;;;;;;;11.80;7.43;;;;;;;7.24;76.91;101571.81;8548550;33;20413;-75
2021/12/13 21:22:18;;;;;;;9.82;7.47;;;;;;;7.20;76.81;101579.13;8542807;33;20179;-76
2021/12/13 21:27:31;;;;;;;10.50;7.15;;;;;;;7.24;76.79;101580.72;8542511;33;20418;-76
2021/12/13 21:32:39;;;;;;;11.70;7.15;;;;;;;7.18;76.83;101569.44;8515092;33;20433;-75
2021/12/13 21:43:10;;;;;;;11.27;7.30;;;;;;;7.16;76.77;101569.53;8546285;33;20178;-76
2021/12/13 21:48:19;;;;;;;10.13;6.78;;;;;;;7.16;77.17;101572.22;8546761;33;20421;-76
2021/12/13 21:53:33;;;;;;;11.50;7.28;;;;;;;7.20;77.00;101572.91;8554241;33;20424;-76
2021/12/13 21:58:43;;;;;;;11.60;8.02;;;;;;;7.16;76.79;101574.88;8553642;33;20241;-76
2021/12/13 22:03:50;;;;;;;12.38;8.55;;;;;;;7.13;77.06;101566.13;8562885;33;20446;-77
2021/12/13 22:09:01;;;;;;;14.95;7.93;;;;;;;7.16;76.95;101563.31;8564518;33;20196;-75
2021/12/13 22:14:10;;;;;;;15.75;8.80;;;;;;;7.06;77.04;101569.09;8567366;33;20183;-76
2021/12/13 22:19:21;;;;;;;14.45;8.68;;;;;;;7.13;76.83;101559.00;8570932;33;20432;-75
2021/12/13 22:24:32;;;;;;;14.20;8.20;;;;;;;7.12;76.57;101564.41;8566448;33;20201;-75
2021/12/13 22:29:37;;;;;;;16.58;8.93;;;;;;;7.12;76.57;101561.72;8562198;33;20425;-75
2021/12/13 22:34:44;;;;;;;16.65;8.48;;;;;;;7.10;76.70;101566.28;8562457;33;20287;-76
2021/12/13 22:40:00;;;;;;;15.27;9.43;;;;;;;7.12;76.82;101557.25;8561728;33;21014;-75
2021/12/13 22:45:05;;;;;;;15.05;9.57;;;;;;;7.10;76.99;101568.94;8516330;33;20648;-75
2021/12/13 22:50:13;;;;;;;12.57;8.60;;;;;;;7.10;77.03;101575.16;8550628;33;20453;-76
2021/12/13 22:55:22;;;;;;;16.95;9.32;;;;;;;7.08;76.55;101571.72;8557176;33;20156;-76
2021/12/13 23:00:32;;;;;;;17.90;9.75;;;;;;;7.10;76.39;101568.94;8546023;33;20187;-75
2021/12/13 23:05:35;;;;;;;16.10;9.68;;;;;;;7.09;76.41;101576.09;8543507;33;20144;-76
2021/12/13 23:10:53;;;;;;;18.33;10.85;;;;;;;7.08;76.45;101573.53;8545088;33;20423;-76
2021/12/13 23:16:07;;;;;;;16.85;9.77;;;;;;;7.09;76.55;101572.56;8497578;33;20262;-75
2021/12/13 23:21:11;;;;;;;17.95;10.27;;;;;;;7.07;76.50;101567.28;8490006;33;21063;-75
2021/12/13 23:26:16;;;;;;;19.27;10.75;;;;;;;7.05;76.35;101574.53;8504205;33;20415;-77
2021/12/13 23:31:23;;;;;;;20.05;10.13;;;;;;;7.09;76.55;101562.75;8500867;33;20496;-76
2021/12/13 23:36:35;;;;;;;17.33;10.20;;;;;;;6.94;76.24;101563.47;8499394;33;20456;-76
2021/12/13 23:47:08;;;;;;;16.90;10.02;;;;;;;6.98;75.97;101565.06;8546364;33;20443;-74
2021/12/13 23:52:14;;;;;;;17.08;9.20;;;;;;;7.07;75.75;101559.28;8543385;33;20974;-75
2021/12/13 23:57:19;;;;;;;16.35;9.82;;;;;;;7.06;75.39;101560.22;8542014;33;20700;-74
